createdAt,value
2019-05-01T00:02:49.103Z,99.993896
2019-05-01T00:08:12.244Z,99.993896
2019-05-01T00:13:35.767Z,99.993896
2019-05-01T00:18:59.248Z,99.993896
2019-05-01T00:24:21.942Z,99.993896
2019-05-01T00:29:44.727Z,99.993896
2019-05-01T00:35:07.483Z,99.993896
2019-05-01T00:40:30.284Z,99.993896
2019-05-01T00:45:52.970Z,99.993896
2019-05-01T00:51:15.698Z,99.993896
2019-05-01T00:56:39.101Z,99.993896
2019-05-01T01:02:01.826Z,99.993896
2019-05-01T01:07:24.514Z,99.993896
2019-05-01T01:12:47.293Z,99.993896
2019-05-01T01:18:10.946Z,99.993896
2019-05-01T01:23:33.782Z,99.993896
2019-05-01T01:28:56.498Z,99.993896
2019-05-01T01:34:19.250Z,99.993896
2019-05-01T01:39:41.909Z,99.993896
2019-05-01T01:45:04.537Z,99.993896
2019-05-01T01:50:28.061Z,99.993896
2019-05-01T01:55:50.712Z,99.993896
2019-05-01T02:01:13.343Z,99.993896
2019-05-01T02:06:35.968Z,99.993896
2019-05-01T02:11:58.624Z,99.993896
2019-05-01T02:17:21.702Z,99.993896
2019-05-01T02:22:44.341Z,99.993896
2019-05-01T02:28:07.205Z,99.993896
2019-05-01T02:33:29.970Z,99.993896
2019-05-01T02:38:53.534Z,99.993896
2019-05-01T02:44:16.197Z,99.993896
2019-05-01T02:49:39.006Z,99.993896
2019-05-01T02:55:02.623Z,99.993896
2019-05-01T03:00:25.328Z,99.993896
2019-05-01T03:05:48.177Z,99.993896
2019-05-01T03:11:10.822Z,99.993896
2019-05-01T03:16:33.506Z,99.993896
2019-05-01T03:21:56.269Z,99.993896
2019-05-01T03:27:19.021Z,99.993896
2019-05-01T03:32:41.811Z,99.993896
2019-05-01T03:38:04.586Z,99.993896
2019-05-01T03:43:28.323Z,99.993896
2019-05-01T03:48:51.057Z,99.993896
2019-05-01T03:54:13.752Z,99.993896
2019-05-01T03:59:37.046Z,99.993896
2019-05-01T04:04:59.889Z,99.993896
2019-05-01T04:10:22.654Z,99.993896
2019-05-01T04:15:45.686Z,99.993896
2019-05-01T04:21:09.380Z,99.993896
2019-05-01T04:26:32.136Z,99.993896
2019-05-01T04:31:54.784Z,99.993896
2019-05-01T04:37:17.466Z,99.700928
2019-05-01T04:42:40.244Z,99.389648
2019-05-01T04:48:02.982Z,99.597168
2019-05-01T04:53:25.864Z,99.859619
2019-05-01T04:58:49.460Z,99.237061
2019-05-01T05:04:12.082Z,99.139404
2019-05-01T05:09:36.082Z,98.828125
2019-05-01T05:14:58.874Z,98.7854
2019-05-01T05:20:22.576Z,98.162842
2019-05-01T05:25:46.546Z,97.753906
2019-05-01T05:31:09.194Z,98.266602
2019-05-01T05:36:31.885Z,97.296143
2019-05-01T05:41:54.537Z,96.368408
2019-05-01T05:47:18.206Z,95.550537
2019-05-01T05:52:42.088Z,95.196533
2019-05-01T05:58:04.772Z,95.709229
2019-05-01T06:03:31.101Z,95.153809
2019-05-01T06:08:51.083Z,94.390869
2019-05-01T06:14:13.721Z,93.212891
2019-05-01T06:19:36.432Z,90.95459
2019-05-01T06:25:01.190Z,90.795898
2019-05-01T06:30:24.218Z,91.05835
2019-05-01T06:35:47.184Z,91.204834
2019-05-01T06:41:10.191Z,90.240479
2019-05-01T06:46:35.289Z,89.685059
2019-05-01T06:51:55.540Z,89.172363
2019-05-01T06:57:18.228Z,89.520264
2019-05-01T07:02:41.002Z,88.616943
2019-05-01T07:08:03.678Z,86.462402
2019-05-01T07:13:26.352Z,87.036133
2019-05-01T07:18:50.009Z,85.662842
2019-05-01T07:24:13.749Z,84.533691
2019-05-01T07:29:39.753Z,85.296631
2019-05-01T07:35:01.880Z,86.383057
2019-05-01T07:40:28.855Z,84.661865
2019-05-01T07:45:46.380Z,81.964111
2019-05-01T07:51:09.023Z,80.249023
2019-05-01T07:56:31.686Z,81.347656
2019-05-01T08:01:54.659Z,83.190918
2019-05-01T08:07:16.984Z,81.47583
2019-05-01T08:12:39.694Z,79.522705
2019-05-01T08:18:02.690Z,78.747559
2019-05-01T08:23:25.390Z,80.621338
2019-05-01T08:28:48.185Z,82.641602
2019-05-01T08:34:10.840Z,81.988525
2019-05-01T08:39:34.523Z,77.001953
2019-05-01T08:44:59.798Z,74.829102
2019-05-01T08:50:24.665Z,73.944092
2019-05-01T08:55:46.642Z,78.125
2019-05-01T09:01:10.727Z,74.01123
2019-05-01T09:06:34.667Z,73.22998
2019-05-01T09:11:58.756Z,72.44873
2019-05-01T09:17:22.955Z,72.857666
2019-05-01T09:22:45.607Z,72.277832
2019-05-01T09:28:08.314Z,72.314453
2019-05-01T09:33:32.057Z,72.143555
2019-05-01T09:38:54.621Z,73.632812
2019-05-01T09:44:17.822Z,68.078613
2019-05-01T09:49:40.480Z,70.855713
2019-05-01T09:55:04.170Z,69.909668
2019-05-01T10:00:26.842Z,72.515869
2019-05-01T10:05:49.533Z,69.232178
2019-05-01T10:11:12.146Z,68.798828
2019-05-01T10:16:35.231Z,64.300537
2019-05-01T10:22:02.254Z,63.62915
2019-05-01T10:27:20.502Z,66.461182
2019-05-01T10:32:44.145Z,66.30249
2019-05-01T10:38:09.281Z,62.658691
2019-05-01T10:43:29.456Z,64.990234
2019-05-01T10:48:52.105Z,64.086914
2019-05-01T10:54:14.757Z,64.819336
2019-05-01T10:59:37.375Z,60.894775
2019-05-01T11:05:00.065Z,61.993408
2019-05-01T11:10:22.715Z,58.062744
2019-05-01T11:15:45.347Z,58.26416
2019-05-01T11:21:07.967Z,58.691406
2019-05-01T11:26:30.567Z,58.14209
2019-05-01T11:31:53.702Z,60.461426
2019-05-01T11:37:16.356Z,59.515381
2019-05-01T11:42:38.977Z,60.27832
2019-05-01T11:48:01.629Z,58.69751
2019-05-01T11:53:24.203Z,58.361816
2019-05-01T11:58:46.842Z,58.728027
2019-05-01T12:04:09.444Z,54.553223
2019-05-01T12:09:32.075Z,51.989746
2019-05-01T12:14:54.677Z,49.285889
2019-05-01T12:20:17.358Z,53.594971
2019-05-01T12:25:39.938Z,53.143311
2019-05-01T12:31:02.569Z,53.521729
2019-05-01T12:36:35.591Z,53.070068
2019-05-01T12:41:48.746Z,48.31543
2019-05-01T12:47:11.375Z,51.867676
2019-05-01T12:52:34.036Z,50.286865
2019-05-01T12:57:56.643Z,55.731201
2019-05-01T13:03:19.960Z,55.712891
2019-05-01T13:08:42.560Z,57.049561
2019-05-01T13:14:05.176Z,54.473877
2019-05-01T13:19:27.805Z,54.199219
2019-05-01T13:24:50.452Z,53.997803
2019-05-01T13:30:13.065Z,53.69873
2019-05-01T13:35:35.737Z,57.250977
2019-05-01T13:40:59.366Z,55.688477
2019-05-01T13:46:21.952Z,54.180908
2019-05-01T13:51:44.552Z,53.198242
2019-05-01T13:57:07.160Z,56.469727
2019-05-01T14:02:29.800Z,57.855225
2019-05-01T14:07:52.423Z,59.655762
2019-05-01T14:13:15.018Z,60.247803
2019-05-01T14:18:37.712Z,59.240723
2019-05-01T14:24:00.402Z,50.061035
2019-05-01T14:29:23.024Z,56.219482
2019-05-01T14:34:45.653Z,52.441406
2019-05-01T14:40:08.256Z,47.381592
2019-05-01T14:45:30.883Z,51.763916
2019-05-01T14:50:53.531Z,55.993652
2019-05-01T14:56:16.149Z,55.963135
2019-05-01T15:01:39.565Z,49.761963
2019-05-01T15:07:03.211Z,61.560059
2019-05-01T15:12:26.836Z,51.263428
2019-05-01T15:17:49.538Z,54.351807
2019-05-01T15:23:12.195Z,57.855225
2019-05-01T15:28:34.849Z,59.887695
2019-05-01T15:33:57.520Z,58.59375
2019-05-01T15:39:20.153Z,53.045654
2019-05-01T15:44:42.759Z,53.070068
2019-05-01T15:50:05.434Z,55.664062
2019-05-01T15:55:28.042Z,53.198242
2019-05-01T16:00:50.705Z,50.109863
2019-05-01T16:06:13.773Z,52.46582
2019-05-01T16:11:37.747Z,54.125977
2019-05-01T16:17:00.363Z,54.278564
2019-05-01T16:22:23.011Z,53.747559
2019-05-01T16:27:45.599Z,58.270264
2019-05-01T16:33:08.274Z,53.143311
2019-05-01T16:38:34.383Z,52.618408
2019-05-01T16:43:57.047Z,54.351807
2019-05-01T16:49:19.698Z,55.822754
2019-05-01T16:54:42.928Z,56.80542
2019-05-01T17:00:06.546Z,57.867432
2019-05-01T17:05:29.251Z,59.637451
2019-05-01T17:10:55.295Z,64.208984
2019-05-01T17:16:17.968Z,62.615967
2019-05-01T17:21:40.674Z,63.793945
2019-05-01T17:27:05.384Z,64.300537
2019-05-01T17:32:28.077Z,66.564941
2019-05-01T17:37:50.858Z,66.052246
2019-05-01T17:43:15.151Z,66.082764
2019-05-01T17:48:38.778Z,66.387939
2019-05-01T17:54:02.007Z,70.379639
2019-05-01T17:59:24.723Z,68.994141
2019-05-01T18:04:47.512Z,70.245361
2019-05-01T18:10:10.231Z,71.191406
2019-05-01T18:15:32.911Z,75.604248
2019-05-01T18:20:55.574Z,78.222656
2019-05-01T18:26:18.288Z,81.494141
2019-05-01T18:31:41.671Z,83.874512
2019-05-01T18:37:04.639Z,84.771729
2019-05-01T18:42:27.494Z,83.343506
2019-05-01T18:47:50.227Z,83.483887
2019-05-01T18:53:13.947Z,83.276367
2019-05-01T18:58:36.615Z,84.747314
2019-05-01T19:03:59.493Z,86.2854
2019-05-01T19:09:29.590Z,81.787109
2019-05-01T19:14:46.108Z,83.111572
2019-05-01T19:20:09.038Z,83.319092
2019-05-01T19:25:33.009Z,82.910156
2019-05-01T19:30:56.789Z,82.501221
2019-05-01T19:36:18.908Z,84.008789
2019-05-01T19:41:43.484Z,84.82666
2019-05-01T19:47:07.709Z,85.070801
2019-05-01T19:52:32.286Z,83.947754
2019-05-01T19:57:52.536Z,85.27832
2019-05-01T20:03:15.460Z,85.522461
2019-05-01T20:08:38.392Z,84.60083
2019-05-01T20:14:01.325Z,84.393311
2019-05-01T20:19:24.270Z,85.974121
2019-05-01T20:24:47.237Z,86.993408
2019-05-01T20:30:10.228Z,85.803223
2019-05-01T20:35:34.272Z,87.036133
2019-05-01T20:40:55.834Z,88.818359
2019-05-01T20:46:21.169Z,88.964844
2019-05-01T20:51:43.046Z,88.903809
2019-05-01T20:57:06.679Z,89.007568
2019-05-01T21:02:30.756Z,90.118408
2019-05-01T21:07:56.528Z,92.254639
2019-05-01T21:13:22.474Z,93.035889
2019-05-01T21:18:41.308Z,91.143799
2019-05-01T21:24:04.041Z,91.906738
2019-05-01T21:29:26.738Z,91.595459
2019-05-01T21:34:50.472Z,93.798828
2019-05-01T21:40:13.089Z,95.635986
2019-05-01T21:45:35.809Z,96.66748
2019-05-01T21:51:03.201Z,97.479248
2019-05-01T21:56:23.184Z,98.095703
2019-05-01T22:01:45.853Z,98.608398
2019-05-01T22:07:08.630Z,99.169922
2019-05-01T22:12:31.421Z,99.731445
2019-05-01T22:17:54.138Z,99.884033
2019-05-01T22:23:17.002Z,99.993896
2019-05-01T22:28:39.521Z,99.993896
2019-05-01T22:34:03.333Z,99.993896
2019-05-01T22:39:28.618Z,99.993896
2019-05-01T22:44:48.943Z,99.993896
2019-05-01T22:50:11.717Z,99.993896
2019-05-01T22:55:34.457Z,99.993896
2019-05-01T23:00:57.264Z,99.993896
2019-05-01T23:06:19.920Z,99.993896
2019-05-01T23:11:42.657Z,99.993896
2019-05-01T23:17:05.514Z,99.993896
2019-05-01T23:22:28.389Z,99.993896
2019-05-01T23:27:51.073Z,99.993896
2019-05-01T23:33:14.757Z,99.993896
2019-05-01T23:38:37.534Z,99.993896
2019-05-01T23:44:03.362Z,99.993896
2019-05-01T23:49:22.914Z,99.993896
2019-05-01T23:54:46.588Z,99.993896
